Time;durP1;ratioP1;P1;durP2;ratioP2;P2;SDS_P1;SDS_P2;PMS_P1;PMS_P2;Temp;Humidity;BMP_temperature;BMP_pressure;BME280_temperature;BME280_humidity;BME280_pressure;Samples;Min_cycle;Max_cycle;Signal;HPM_P1;HPM_P2
2020/12/12 00:02:39;;;;;;;25.63;16.20;;;;;;;4.21;100.00;98012.63;5119741;28;20495;-29
2020/12/12 00:05:25;;;;;;;23.90;16.17;;;;;;;4.26;100.00;98007.41;5120098;28;20197;-30
2020/12/12 00:08:11;;;;;;;27.27;16.60;;;;;;;4.25;100.00;98006.56;5120870;28;20224;-30
2020/12/12 00:10:56;;;;;;;24.87;16.80;;;;;;;4.20;100.00;98012.69;5120947;28;20618;-29
2020/12/12 00:13:42;;;;;;;26.57;16.73;;;;;;;4.30;100.00;98009.88;5121274;28;20200;-30
2020/12/12 00:16:28;;;;;;;27.10;17.00;;;;;;;4.26;100.00;98010.81;5119373;28;20193;-29
2020/12/12 00:19:14;;;;;;;27.73;17.87;;;;;;;4.21;100.00;98010.06;5119903;28;20193;-29
2020/12/12 00:22:00;;;;;;;28.87;18.07;;;;;;;4.26;100.00;98009.97;5119144;28;20198;-30
2020/12/12 00:24:45;;;;;;;23.37;16.20;;;;;;;4.25;100.00;98009.13;5119963;28;20343;-29
2020/12/12 00:27:31;;;;;;;26.73;17.17;;;;;;;4.31;100.00;98008.16;5120743;28;20212;-29
2020/12/12 00:30:17;;;;;;;24.33;17.17;;;;;;;4.31;100.00;98005.59;5118678;28;20234;-30
2020/12/12 00:33:04;;;;;;;28.43;16.70;;;;;;;4.32;100.00;97997.06;5120786;28;20298;-30
2020/12/12 00:35:50;;;;;;;24.97;17.07;;;;;;;4.35;100.00;98002.13;5118791;28;20205;-30
2020/12/12 00:38:36;;;;;;;27.17;17.30;;;;;;;4.34;100.00;98006.41;5120139;28;20219;-30
2020/12/12 00:41:21;;;;;;;27.00;16.40;;;;;;;4.29;100.00;98012.47;5118881;28;20475;-29
2020/12/12 00:44:07;;;;;;;26.57;16.33;;;;;;;4.25;100.00;98013.41;5119464;28;20204;-29
2020/12/12 00:46:53;;;;;;;25.50;17.87;;;;;;;4.38;100.00;98014.84;5120132;28;20197;-29
2020/12/12 00:49:40;;;;;;;27.30;17.47;;;;;;;4.36;100.00;98017.44;5120809;28;20223;-29
2020/12/12 00:52:26;;;;;;;25.87;17.37;;;;;;;4.29;100.00;98013.31;5120549;28;20296;-29
2020/12/12 00:55:11;;;;;;;26.63;18.10;;;;;;;4.34;100.00;98016.63;5119037;28;20201;-30
2020/12/12 00:57:57;;;;;;;27.33;17.07;;;;;;;4.47;100.00;98009.53;5118716;28;20224;-30
2020/12/12 01:00:43;;;;;;;25.10;17.77;;;;;;;4.44;100.00;98012.16;5119784;28;20426;-29
2020/12/12 01:03:29;;;;;;;26.13;16.57;;;;;;;4.42;100.00;98009.63;5120151;28;20277;-29
2020/12/12 01:06:18;;;;;;;27.43;18.17;;;;;;;4.37;100.00;98011.47;5120306;28;20603;-30
2020/12/12 01:09:03;;;;;;;25.07;17.17;;;;;;;4.46;100.00;98006.13;5120206;28;20236;-30
2020/12/12 01:11:51;;;;;;;24.33;16.53;;;;;;;4.47;100.00;98010.38;5120141;28;20597;-29
2020/12/12 01:14:37;;;;;;;26.03;17.57;;;;;;;4.43;100.00;98016.44;5119373;28;20304;-30
2020/12/12 01:17:23;;;;;;;27.53;17.93;;;;;;;4.50;100.00;98018.00;5118549;28;20201;-29
2020/12/12 01:20:09;;;;;;;25.07;16.90;;;;;;;4.51;100.00;98013.72;5118459;28;20205;-30
2020/12/12 01:22:55;;;;;;;22.80;15.70;;;;;;;4.61;100.00;98015.19;5120019;28;20194;-30
2020/12/12 01:25:41;;;;;;;29.77;18.47;;;;;;;4.64;100.00;98024.53;5120960;28;20264;-29
2020/12/12 01:28:27;;;;;;;23.57;16.77;;;;;;;4.59;100.00;98018.69;5121139;28;20260;-30
2020/12/12 01:31:23;;;;;;;25.17;16.17;;;;;;;4.64;100.00;98019.41;5118778;28;20206;-31
2020/12/12 01:34:10;;;;;;;20.93;15.23;;;;;;;4.60;100.00;98022.91;5104902;28;20348;-30
2020/12/12 01:36:56;;;;;;;22.33;15.60;;;;;;;4.62;100.00;98019.44;5102137;28;20201;-29
2020/12/12 01:39:42;;;;;;;21.13;15.27;;;;;;;4.66;100.00;98017.66;5102322;28;20602;-30
2020/12/12 01:42:32;;;;;;;20.27;14.40;;;;;;;4.70;100.00;98024.41;5102505;28;20195;-30
2020/12/12 01:45:17;;;;;;;20.17;13.60;;;;;;;4.65;100.00;98016.81;5104861;28;20199;-29
2020/12/12 01:48:03;;;;;;;20.70;14.60;;;;;;;4.71;100.00;98031.22;5102214;28;20643;-29
2020/12/12 01:50:50;;;;;;;21.40;15.20;;;;;;;4.75;100.00;98020.03;5101918;28;20219;-30
2020/12/12 01:53:35;;;;;;;22.47;14.83;;;;;;;4.73;100.00;98025.19;5102302;28;20199;-30
2020/12/12 01:56:23;;;;;;;21.73;15.33;;;;;;;4.81;100.00;98030.97;5103749;28;20325;-30
2020/12/12 01:59:08;;;;;;;20.00;13.77;;;;;;;4.68;100.00;98026.16;5101928;28;20642;-29
2020/12/12 02:01:57;;;;;;;19.50;15.37;;;;;;;4.73;100.00;98020.06;5102055;28;20272;-30
2020/12/12 02:04:48;;;;;;;21.53;15.27;;;;;;;4.78;100.00;98022.53;5102193;28;20322;-29
2020/12/12 02:07:34;;;;;;;19.97;14.13;;;;;;;4.76;100.00;98027.69;5101946;28;20198;-29
2020/12/12 02:10:20;;;;;;;20.17;13.30;;;;;;;4.72;100.00;98023.50;5102898;28;20204;-30
2020/12/12 02:13:08;;;;;;;21.47;15.10;;;;;;;4.75;100.00;98026.00;5101743;28;20351;-29
2020/12/12 02:15:53;;;;;;;18.50;13.53;;;;;;;4.66;100.00;98025.34;5101428;28;20199;-30
2020/12/12 02:18:40;;;;;;;19.60;14.20;;;;;;;4.76;100.00;98026.84;5103753;28;20612;-30
2020/12/12 02:21:26;;;;;;;18.97;13.80;;;;;;;4.81;100.00;98025.00;5102362;28;20261;-30
2020/12/12 02:24:12;;;;;;;16.83;11.73;;;;;;;4.79;100.00;98029.34;5100939;28;20258;-29
2020/12/12 02:26:58;;;;;;;20.87;13.20;;;;;;;4.84;100.00;98022.38;5102014;28;20200;-29
2020/12/12 02:29:47;;;;;;;19.80;13.80;;;;;;;4.73;100.00;98024.34;5100672;28;20239;-29
2020/12/12 02:32:33;;;;;;;17.40;13.13;;;;;;;4.81;100.00;98025.00;5100965;28;20202;-29
2020/12/12 02:35:19;;;;;;;20.13;13.23;;;;;;;4.79;100.00;98021.66;5101225;28;20203;-30
2020/12/12 02:38:05;;;;;;;14.80;11.37;;;;;;;4.84;100.00;98023.22;5101953;28;20253;-29
2020/12/12 02:40:51;;;;;;;17.70;12.97;;;;;;;4.82;100.00;98021.56;5100611;28;20203;-29
2020/12/12 02:43:37;;;;;;;17.20;12.00;;;;;;;4.87;100.00;98027.44;5101818;28;20340;-29
2020/12/12 02:46:22;;;;;;;15.73;12.10;;;;;;;4.92;100.00;98030.75;5101598;28;20353;-30
2020/12/12 02:49:08;;;;;;;17.27;12.63;;;;;;;4.93;100.00;98026.47;5100727;28;20222;-29
2020/12/12 02:51:55;;;;;;;16.17;12.10;;;;;;;4.95;100.00;98027.28;5100001;28;20204;-29
2020/12/12 02:54:42;;;;;;;16.10;11.60;;;;;;;4.99;100.00;98014.38;5100191;28;20344;-29
2020/12/12 02:57:27;;;;;;;14.17;10.93;;;;;;;4.96;100.00;98024.69;5101456;28;20195;-29
2020/12/12 03:00:15;;;;;;;17.90;11.47;;;;;;;4.98;100.00;98020.38;5100425;28;20195;-29
2020/12/12 03:03:02;;;;;;;15.20;11.07;;;;;;;4.98;100.00;98027.22;5101184;28;20335;-29
2020/12/12 03:05:48;;;;;;;16.40;11.60;;;;;;;4.93;100.00;98029.88;5100158;28;20632;-29
2020/12/12 03:08:33;;;;;;;14.87;11.77;;;;;;;4.92;100.00;98030.75;5100275;28;20489;-29
2020/12/12 03:11:20;;;;;;;14.70;11.10;;;;;;;4.95;100.00;98035.81;5100691;28;20203;-29
2020/12/12 03:14:05;;;;;;;16.73;11.37;;;;;;;5.00;100.00;98045.91;5100421;28;20215;-29
2020/12/12 03:16:51;;;;;;;14.03;11.10;;;;;;;4.97;100.00;98039.19;5100537;28;20259;-29
2020/12/12 03:19:37;;;;;;;15.10;11.10;;;;;;;4.97;100.00;98040.91;5100475;28;20360;-31
2020/12/12 03:22:23;;;;;;;15.90;11.77;;;;;;;4.92;100.00;98038.44;5100893;28;20195;-29
2020/12/12 03:25:08;;;;;;;14.37;10.53;;;;;;;4.97;100.00;98038.34;5103426;28;20275;-29
2020/12/12 03:27:55;;;;;;;13.33;10.63;;;;;;;5.03;100.00;98041.56;5099856;28;20285;-29
2020/12/12 03:30:40;;;;;;;13.67;10.63;;;;;;;4.99;100.00;98042.53;5100394;28;20285;-29
2020/12/12 03:33:26;;;;;;;14.90;10.97;;;;;;;4.92;100.00;98046.13;5100030;28;20308;-29
2020/12/12 03:36:12;;;;;;;13.17;10.40;;;;;;;5.06;100.00;98046.63;5100650;28;20601;-29
2020/12/12 03:38:57;;;;;;;14.80;10.97;;;;;;;5.14;100.00;98047.31;5099649;28;20195;-29
2020/12/12 03:41:43;;;;;;;12.17;9.70;;;;;;;5.12;100.00;98041.38;5099555;28;20589;-29
2020/12/12 03:44:30;;;;;;;14.03;9.73;;;;;;;5.16;100.00;98048.13;5099205;28;20224;-29
2020/12/12 03:47:16;;;;;;;14.13;10.37;;;;;;;5.04;100.00;98050.09;5099471;28;20219;-29
2020/12/12 03:50:03;;;;;;;14.43;10.23;;;;;;;5.12;100.00;98061.03;5100064;28;20231;-29
2020/12/12 03:52:48;;;;;;;14.60;10.87;;;;;;;5.18;100.00;98069.44;5099627;28;20218;-29
2020/12/12 03:55:34;;;;;;;11.93;9.73;;;;;;;5.08;100.00;98065.38;5099375;28;20333;-30
2020/12/12 03:58:19;;;;;;;15.07;10.00;;;;;;;5.05;100.00;98060.31;5099076;28;20195;-29
2020/12/12 04:01:06;;;;;;;14.00;10.47;;;;;;;5.05;100.00;98067.16;5099753;28;20199;-30
2020/12/12 04:03:51;;;;;;;15.57;10.73;;;;;;;5.06;100.00;98064.56;5099689;28;20277;-29
2020/12/12 04:06:38;;;;;;;12.60;9.50;;;;;;;5.08;100.00;98067.94;5098837;28;20199;-30
2020/12/12 04:09:23;;;;;;;13.97;10.70;;;;;;;5.11;100.00;98072.16;5098978;28;20222;-30
2020/12/12 04:12:09;;;;;;;14.80;9.57;;;;;;;5.08;100.00;98070.50;5099010;28;20477;-30
2020/12/12 04:14:54;;;;;;;14.43;10.77;;;;;;;5.09;100.00;98071.34;5083843;28;20287;-30
2020/12/12 04:17:41;;;;;;;13.50;9.93;;;;;;;5.19;100.00;98076.25;5103280;28;20288;-30
2020/12/12 04:20:28;;;;;;;13.30;10.07;;;;;;;5.12;100.00;98078.97;5099687;28;20525;-30
2020/12/12 04:23:15;;;;;;;12.83;9.70;;;;;;;5.30;100.00;98075.16;5099050;28;20199;-30
2020/12/12 04:26:01;;;;;;;13.03;10.17;;;;;;;5.20;100.00;98090.72;5098872;28;20548;-29
2020/12/12 04:28:47;;;;;;;13.03;9.90;;;;;;;5.19;100.00;98086.50;5099295;28;20338;-30
2020/12/12 04:31:34;;;;;;;11.90;9.83;;;;;;;5.24;100.00;98096.63;5099378;28;20291;-29
2020/12/12 04:34:21;;;;;;;11.47;9.03;;;;;;;5.27;100.00;98100.84;5098168;28;20204;-30
2020/12/12 04:37:07;;;;;;;11.93;9.50;;;;;;;5.24;100.00;98093.22;5097996;28;20630;-30
2020/12/12 04:39:54;;;;;;;13.07;9.93;;;;;;;5.27;100.00;98099.13;5098174;28;20245;-29
2020/12/12 04:42:42;;;;;;;11.37;9.33;;;;;;;5.32;100.00;98099.03;5100524;28;20474;-30
2020/12/12 04:45:29;;;;;;;13.07;10.50;;;;;;;5.31;100.00;98100.75;5098463;28;20223;-30
2020/12/12 04:48:15;;;;;;;11.80;9.20;;;;;;;5.26;100.00;98091.47;5098786;28;20284;-30
2020/12/12 04:51:04;;;;;;;14.47;10.30;;;;;;;5.30;100.00;98093.94;5098087;28;20261;-29
2020/12/12 04:53:51;;;;;;;13.10;9.60;;;;;;;5.25;100.00;98098.31;5101223;28;20265;-30
2020/12/12 04:56:39;;;;;;;11.87;9.37;;;;;;;5.29;100.00;98099.09;5098451;28;20202;-29
2020/12/12 04:59:29;;;;;;;12.43;9.67;;;;;;;5.39;100.00;98098.00;5098693;28;20192;-30
2020/12/12 05:02:16;;;;;;;11.43;9.07;;;;;;;5.31;100.00;98105.88;5099041;28;20195;-29
2020/12/12 05:05:03;;;;;;;12.97;9.10;;;;;;;5.28;100.00;98111.06;5103733;28;20203;-30
2020/12/12 05:07:50;;;;;;;10.37;8.67;;;;;;;5.28;100.00;98105.09;5102774;28;20261;-29
2020/12/12 05:10:38;;;;;;;11.60;9.17;;;;;;;5.24;100.00;98108.59;5102832;28;20587;-29
2020/12/12 05:13:26;;;;;;;12.57;9.73;;;;;;;5.27;100.00;98106.81;5102573;28;20199;-30
2020/12/12 05:16:15;;;;;;;11.80;9.13;;;;;;;5.29;100.00;98105.06;5102521;28;20240;-30
2020/12/12 05:19:03;;;;;;;12.70;9.27;;;;;;;5.25;100.00;98098.31;5101991;28;20606;-30
2020/12/12 05:21:52;;;;;;;12.23;9.53;;;;;;;5.28;100.00;98103.38;5102887;28;20207;-30
2020/12/12 05:24:39;;;;;;;12.47;9.33;;;;;;;5.20;100.00;98098.41;5102557;28;20229;-30
2020/12/12 05:27:27;;;;;;;11.93;9.20;;;;;;;5.21;100.00;98099.25;5103107;28;20385;-30
2020/12/12 05:30:14;;;;;;;12.70;9.63;;;;;;;5.11;100.00;98102.91;5102447;28;20245;-29
2020/12/12 05:33:01;;;;;;;15.10;10.50;;;;;;;5.18;100.00;98104.47;5102050;28;20473;-30
2020/12/12 05:35:47;;;;;;;15.57;10.40;;;;;;;5.15;100.00;98104.53;5101916;28;20195;-30
2020/12/12 05:38:33;;;;;;;14.23;10.30;;;;;;;5.04;100.00;98098.78;5102113;28;20605;-29
2020/12/12 05:41:25;;;;;;;11.90;9.57;;;;;;;5.10;100.00;98111.47;5101972;28;20352;-30
2020/12/12 05:44:12;;;;;;;12.57;9.63;;;;;;;5.08;100.00;98110.66;5101989;28;20193;-30
2020/12/12 05:47:00;;;;;;;13.07;9.83;;;;;;;5.12;100.00;98110.56;5102003;28;20214;-29
2020/12/12 05:49:47;;;;;;;11.67;8.90;;;;;;;5.08;100.00;98114.06;5102348;28;20223;-29
2020/12/12 05:52:35;;;;;;;12.73;11.25;;;;;;;5.22;100.00;98111.19;5107603;28;20733;-30
2020/12/12 05:55:22;;;;;;;12.10;9.80;;;;;;;5.23;100.00;98125.69;5123431;28;20286;-30
2020/12/12 05:58:09;;;;;;;13.33;9.20;;;;;;;5.16;100.00;98121.59;5123379;28;20198;-29
2020/12/12 06:00:55;;;;;;;10.90;8.50;;;;;;;5.19;100.00;98127.50;5123895;28;20187;-30
2020/12/12 06:03:51;;;;;;;12.10;9.07;;;;;;;5.31;100.00;98125.53;5122033;28;20197;-30
2020/12/12 06:06:43;;;;;;;12.23;9.37;;;;;;;5.32;100.00;98124.66;5122060;28;20502;-30
2020/12/12 06:09:36;;;;;;;12.50;9.63;;;;;;;5.30;100.00;98126.41;5121811;28;20225;-30
2020/12/12 06:12:23;;;;;;;12.17;9.40;;;;;;;5.27;100.00;98135.00;5121777;28;20191;-30
2020/12/12 06:15:17;;;;;;;11.37;8.60;;;;;;;5.26;100.00;98137.59;5122850;28;20214;-30
2020/12/12 06:18:31;;;;;;;10.67;8.90;;;;;;;5.26;100.00;98142.72;5123333;28;20256;-29
2020/12/12 06:21:22;;;;;;;10.33;8.10;;;;;;;5.19;100.00;98142.03;5122486;28;20619;-30
2020/12/12 06:24:10;;;;;;;12.00;9.20;;;;;;;5.13;100.00;98140.44;5122692;28;20500;-29
2020/12/12 06:27:00;;;;;;;14.17;9.00;;;;;;;5.11;100.00;98142.19;5121057;28;20199;-29
2020/12/12 06:29:50;;;;;;;12.77;9.27;;;;;;;5.09;100.00;98150.78;5121302;28;20335;-30
2020/12/12 06:32:37;;;;;;;12.67;9.07;;;;;;;5.11;100.00;98149.88;5121101;28;20531;-29
2020/12/12 06:35:31;;;;;;;12.47;8.80;;;;;;;5.12;100.00;98154.13;5121485;28;20596;-30
2020/12/12 06:38:23;;;;;;;9.90;8.37;;;;;;;5.16;100.00;98148.06;5120862;28;20199;-29
2020/12/12 06:41:10;;;;;;;11.17;9.23;;;;;;;5.11;100.00;98144.75;5120383;28;20193;-30
2020/12/12 06:43:56;;;;;;;10.93;9.13;;;;;;;5.10;100.00;98158.44;5120811;28;20191;-29
2020/12/12 06:46:53;;;;;;;10.17;8.60;;;;;;;5.11;100.00;98160.13;5121541;28;20202;-29
2020/12/12 06:49:42;;;;;;;13.07;7.90;;;;;;;5.17;100.00;98169.41;5120653;28;20230;-30
2020/12/12 06:52:29;;;;;;;9.37;7.80;;;;;;;5.20;100.00;98180.41;5122374;28;20198;-30
2020/12/12 06:55:19;;;;;;;9.70;7.90;;;;;;;5.21;100.00;98181.25;5120188;28;20406;-29
2020/12/12 06:58:22;;;;;;;9.33;7.70;;;;;;;5.33;100.00;98175.03;5122382;28;20215;-30
2020/12/12 07:01:28;;;;;;;12.53;8.47;;;;;;;5.38;100.00;98183.50;5121127;28;20468;-30
2020/12/12 07:04:23;;;;;;;10.60;8.33;;;;;;;5.30;100.00;98191.34;5120435;28;20425;-30
2020/12/12 07:07:12;;;;;;;11.37;8.97;;;;;;;5.28;100.00;98197.38;5120381;28;20490;-29
2020/12/12 07:09:58;;;;;;;11.53;8.07;;;;;;;5.30;100.00;98199.03;5121092;28;20225;-30
2020/12/12 07:12:45;;;;;;;9.20;7.93;;;;;;;5.31;100.00;98210.97;5123126;28;20214;-30
2020/12/12 07:15:31;;;;;;;9.70;8.37;;;;;;;5.31;100.00;98208.41;5120938;28;20205;-29
2020/12/12 07:18:17;;;;;;;10.57;8.20;;;;;;;5.36;100.00;98211.72;5120878;28;20260;-30
2020/12/12 07:21:04;;;;;;;9.80;7.60;;;;;;;5.41;100.00;98209.03;5120807;28;20195;-29
2020/12/12 07:23:51;;;;;;;10.77;8.50;;;;;;;5.45;100.00;98210.66;5119845;28;20439;-30
2020/12/12 07:26:37;;;;;;;9.10;7.80;;;;;;;5.50;100.00;98217.38;5119729;28;20532;-29
2020/12/12 07:29:23;;;;;;;9.70;7.77;;;;;;;5.57;100.00;98209.56;5121487;28;20234;-29
2020/12/12 07:32:09;;;;;;;11.80;9.17;;;;;;;5.53;100.00;98214.75;5121278;28;20199;-30
2020/12/12 07:34:59;;;;;;;8.43;7.40;;;;;;;5.58;100.00;98222.34;5121833;28;20194;-30
2020/12/12 07:37:46;;;;;;;9.40;7.77;;;;;;;5.45;100.00;98232.00;5120905;28;20194;-30
2020/12/12 07:40:33;;;;;;;7.63;6.83;;;;;;;5.54;100.00;98228.41;5119374;28;20299;-29
2020/12/12 07:43:21;;;;;;;11.33;8.50;;;;;;;5.52;100.00;98237.88;5117641;28;20214;-30
2020/12/12 07:46:09;;;;;;;11.37;9.53;;;;;;;5.61;100.00;98242.78;5102491;28;20609;-30
2020/12/12 07:49:01;;;;;;;9.80;8.80;;;;;;;5.66;100.00;98240.97;5099705;28;20579;-30
2020/12/12 07:51:48;;;;;;;9.67;8.67;;;;;;;5.63;100.00;98255.56;5098423;28;20601;-30
2020/12/12 07:54:38;;;;;;;11.90;9.73;;;;;;;5.67;100.00;98252.91;5099930;28;20663;-30
2020/12/12 07:57:24;;;;;;;10.90;8.60;;;;;;;5.62;100.00;98259.00;5098762;28;20256;-29
2020/12/12 08:00:12;;;;;;;9.43;7.77;;;;;;;5.73;100.00;98260.47;5101495;28;20215;-30
2020/12/12 08:03:00;;;;;;;10.13;8.07;;;;;;;5.64;100.00;98264.94;5101106;28;20531;-30
2020/12/12 08:05:46;;;;;;;7.77;6.90;;;;;;;5.73;100.00;98269.91;5099697;28;20199;-30
2020/12/12 08:08:32;;;;;;;12.97;8.77;;;;;;;5.80;100.00;98271.44;5099720;28;20203;-30
2020/12/12 08:11:21;;;;;;;9.60;7.93;;;;;;;5.72;100.00;98275.91;5098544;28;20204;-30
2020/12/12 08:14:09;;;;;;;8.63;7.73;;;;;;;5.74;100.00;98279.28;5098300;28;20591;-30
2020/12/12 08:16:57;;;;;;;9.10;7.37;;;;;;;5.80;100.00;98282.53;5098785;28;20281;-30
2020/12/12 08:19:49;;;;;;;8.80;7.33;;;;;;;5.86;100.00;98295.25;5098556;28;20292;-29
2020/12/12 08:22:37;;;;;;;7.93;7.03;;;;;;;5.83;100.00;98286.75;5098571;28;20196;-30
2020/12/12 08:25:24;;;;;;;9.63;8.43;;;;;;;5.98;100.00;98288.19;5098495;28;20196;-29
2020/12/12 08:28:11;;;;;;;9.23;7.93;;;;;;;5.93;100.00;98298.56;5102680;28;20461;-30
2020/12/12 08:31:12;;;;;;;7.63;6.60;;;;;;;6.01;100.00;98303.50;5108637;28;20222;-30
2020/12/12 08:33:58;;;;;;;7.43;6.73;;;;;;;6.02;100.00;98310.31;5120578;28;20217;-29
2020/12/12 08:36:45;;;;;;;7.60;6.37;;;;;;;5.95;100.00;98307.06;5118918;28;20190;-29
2020/12/12 08:39:31;;;;;;;9.67;6.70;;;;;;;6.07;100.00;98314.47;5118301;28;20608;-30
2020/12/12 08:42:23;;;;;;;7.27;6.57;;;;;;;6.13;100.00;98316.09;5118773;28;20202;-30
2020/12/12 08:45:14;;;;;;;9.33;7.20;;;;;;;6.15;100.00;98322.03;5118859;28;20256;-29
2020/12/12 08:48:06;;;;;;;10.53;6.83;;;;;;;6.22;100.00;98321.00;5118864;28;20273;-30
2020/12/12 08:50:56;;;;;;;7.60;6.80;;;;;;;6.17;100.00;98315.13;5118578;28;20647;-29
2020/12/12 08:53:43;;;;;;;8.20;6.60;;;;;;;6.20;100.00;98322.75;5123110;28;20600;-30
2020/12/12 08:56:30;;;;;;;7.73;6.60;;;;;;;6.30;100.00;98321.66;5118898;28;20472;-29
2020/12/12 08:59:20;;;;;;;7.80;7.00;;;;;;;6.31;100.00;98335.34;5118205;28;20234;-29
2020/12/12 09:02:17;;;;;;;8.37;6.90;;;;;;;6.24;100.00;98329.50;5119516;28;20201;-29
2020/12/12 09:05:13;;;;;;;9.60;7.33;;;;;;;6.35;100.00;98335.25;5117983;28;20674;-29
2020/12/12 09:08:16;;;;;;;9.20;7.40;;;;;;;6.49;100.00;98343.47;5119273;28;20356;-30
2020/12/12 09:11:12;;;;;;;12.10;8.30;;;;;;;6.46;100.00;98342.69;5118106;28;20510;-29
2020/12/12 09:14:04;;;;;;;9.43;6.77;;;;;;;6.38;100.00;98353.16;5118532;28;20206;-30
2020/12/12 09:16:55;;;;;;;9.73;7.80;;;;;;;6.35;100.00;98360.94;5119135;28;20357;-29
2020/12/12 09:19:43;;;;;;;8.07;7.27;;;;;;;6.45;100.00;98362.38;5118498;28;20198;-29
2020/12/12 09:22:31;;;;;;;9.30;7.20;;;;;;;6.46;100.00;98366.66;5118373;28;20198;-29
2020/12/12 09:25:20;;;;;;;7.60;6.70;;;;;;;6.63;100.00;98376.53;5120047;28;20194;-29
2020/12/12 09:28:09;;;;;;;8.63;7.43;;;;;;;6.76;100.00;98371.97;5117483;28;20217;-29
2020/12/12 09:30:56;;;;;;;14.67;9.73;;;;;;;6.63;100.00;98383.38;5120306;28;20376;-29
2020/12/12 09:33:43;;;;;;;9.17;7.37;;;;;;;6.64;100.00;98387.66;5118206;28;20600;-29
2020/12/12 09:36:29;;;;;;;7.83;7.10;;;;;;;6.63;100.00;98388.53;5117551;28;20252;-30
2020/12/12 09:39:16;;;;;;;11.50;10.30;;;;;;;6.67;100.00;98387.59;5118322;28;20195;-29
2020/12/12 09:42:03;;;;;;;9.87;8.47;;;;;;;6.81;100.00;98388.94;5118674;28;20601;-29
2020/12/12 09:44:49;;;;;;;8.73;7.43;;;;;;;6.83;100.00;98394.03;5119008;28;20248;-29
2020/12/12 09:47:35;;;;;;;8.07;7.27;;;;;;;6.88;100.00;98397.34;5118373;28;20214;-29
2020/12/12 09:50:33;;;;;;;10.13;8.03;;;;;;;6.99;100.00;98395.38;5121622;28;20222;-29
2020/12/12 09:53:19;;;;;;;7.67;6.37;;;;;;;6.74;100.00;98401.97;5121471;28;20199;-29
2020/12/12 09:56:08;;;;;;;7.10;6.40;;;;;;;7.07;100.00;98405.44;5121104;28;20208;-29
2020/12/12 09:58:54;;;;;;;9.53;7.63;;;;;;;7.07;100.00;98411.44;5121551;28;20320;-29
2020/12/12 10:01:40;;;;;;;8.43;7.63;;;;;;;7.07;100.00;98403.72;5121337;28;20350;-29
2020/12/12 10:04:27;;;;;;;7.03;6.33;;;;;;;7.00;100.00;98409.03;5121976;28;20224;-30
2020/12/12 10:07:16;;;;;;;6.13;5.53;;;;;;;7.04;100.00;98420.94;5121520;28;20678;-29
2020/12/12 10:10:03;;;;;;;6.63;5.87;;;;;;;7.10;100.00;98416.50;5122284;28;20219;-30
2020/12/12 10:12:51;;;;;;;6.97;5.90;;;;;;;7.26;100.00;98422.94;5120863;28;20277;-30
2020/12/12 10:15:36;;;;;;;5.80;5.30;;;;;;;7.23;100.00;98423.03;5121318;28;20500;-29
2020/12/12 10:18:24;;;;;;;6.03;5.53;;;;;;;7.34;100.00;98415.06;5121511;28;20190;-30
2020/12/12 10:21:11;;;;;;;7.73;5.93;;;;;;;7.39;100.00;98417.50;5121033;28;20250;-30
2020/12/12 10:23:57;;;;;;;6.13;5.53;;;;;;;7.43;100.00;98419.09;5121606;28;20194;-30
2020/12/12 10:26:46;;;;;;;6.03;5.53;;;;;;;7.45;100.00;98419.91;5120774;28;20657;-30
2020/12/12 10:29:33;;;;;;;8.43;6.73;;;;;;;7.29;100.00;98422.03;5122687;28;20231;-30
2020/12/12 10:32:19;;;;;;;30.50;20.47;;;;;;;7.13;100.00;98423.31;5120720;28;20187;-29
2020/12/12 10:35:07;;;;;;;13.33;11.17;;;;;;;7.23;100.00;98430.72;5121093;28;20670;-29
2020/12/12 10:37:55;;;;;;;6.53;5.83;;;;;;;7.11;100.00;98430.22;5121071;28;20195;-29
2020/12/12 10:40:44;;;;;;;6.70;5.90;;;;;;;7.11;100.00;98422.50;5121408;28;20237;-30
2020/12/12 10:43:31;;;;;;;6.33;5.73;;;;;;;7.45;100.00;98425.03;5100318;28;20203;-36
2020/12/12 10:46:18;;;;;;;5.80;5.20;;;;;;;7.43;100.00;98427.66;5100598;28;20251;-29
2020/12/12 10:49:04;;;;;;;6.13;4.90;;;;;;;7.21;100.00;98431.66;5100758;28;20199;-30
2020/12/12 10:51:54;;;;;;;5.97;5.47;;;;;;;7.21;100.00;98437.63;5099700;28;20196;-30
2020/12/12 10:54:45;;;;;;;5.60;4.87;;;;;;;7.19;100.00;98444.53;5100244;28;20206;-30
2020/12/12 10:57:31;;;;;;;7.33;5.30;;;;;;;7.42;100.00;98440.56;5100484;28;20340;-30
2020/12/12 11:00:23;;;;;;;6.73;5.93;;;;;;;7.42;100.00;98445.69;5099466;28;20262;-30
2020/12/12 11:03:10;;;;;;;5.93;5.33;;;;;;;7.53;100.00;98446.28;5103526;28;20283;-30
2020/12/12 11:06:02;;;;;;;8.57;5.43;;;;;;;7.51;100.00;98440.34;5124484;28;20256;-30
2020/12/12 11:08:48;;;;;;;6.00;5.40;;;;;;;7.54;100.00;98448.81;5119913;28;20264;-29
2020/12/12 11:11:38;;;;;;;10.80;6.37;;;;;;;7.66;100.00;98452.78;5119901;28;20548;-29
2020/12/12 11:14:28;;;;;;;6.00;5.50;;;;;;;7.85;100.00;98460.84;5118393;28;20196;-29
2020/12/12 11:17:14;;;;;;;7.70;5.23;;;;;;;7.90;100.00;98461.59;5121130;28;20201;-30
2020/12/12 11:20:01;;;;;;;7.67;5.07;;;;;;;7.97;100.00;98468.25;5121182;28;20214;-30
2020/12/12 11:22:48;;;;;;;5.60;5.10;;;;;;;7.73;100.00;98463.78;5119559;28;20266;-30
2020/12/12 11:25:35;;;;;;;6.80;5.37;;;;;;;7.74;100.00;98465.47;5119429;28;20264;-30
2020/12/12 11:28:21;;;;;;;5.97;5.40;;;;;;;7.95;100.00;98470.88;5119744;28;20236;-29
2020/12/12 11:31:21;;;;;;;6.10;5.50;;;;;;;8.17;100.00;98480.59;5120036;28;20280;-30
2020/12/12 11:34:12;;;;;;;8.33;5.73;;;;;;;8.27;100.00;98469.13;5121956;28;20205;-30
2020/12/12 11:40:17;;;;;;;8.70;5.73;;;;;;;8.35;100.00;98477.53;5109766;28;20577;-31
2020/12/12 11:49:11;;;;;;;7.17;6.47;;;;;;;8.46;100.00;98488.34;5119607;28;20295;-29
2020/12/12 11:52:00;;;;;;;13.83;10.37;;;;;;;8.19;100.00;98484.78;5119751;28;20189;-29
2020/12/12 11:54:47;;;;;;;13.53;10.83;;;;;;;8.65;100.00;98491.22;5119442;28;20248;-30
2020/12/12 11:57:33;;;;;;;6.80;6.10;;;;;;;9.02;100.00;98493.53;5119452;28;20210;-30
2020/12/12 12:00:24;;;;;;;7.07;6.47;;;;;;;9.25;100.00;98491.06;5120812;28;20189;-31
2020/12/12 12:03:12;;;;;;;7.90;7.00;;;;;;;8.42;100.00;98503.94;5119469;28;20278;-30
2020/12/12 12:05:58;;;;;;;8.20;7.40;;;;;;;8.11;100.00;98499.63;5118659;28;20194;-31
2020/12/12 12:08:56;;;;;;;12.83;8.53;;;;;;;8.19;100.00;98507.97;5118508;28;20364;-30
2020/12/12 12:11:45;;;;;;;11.20;8.47;;;;;;;8.77;100.00;98514.09;5118301;28;20222;-31
2020/12/12 12:14:42;;;;;;;7.03;6.00;;;;;;;9.06;100.00;98514.91;5117812;28;20237;-31
2020/12/12 12:17:30;;;;;;;6.37;5.77;;;;;;;9.30;100.00;98512.41;5115014;28;20225;-31
2020/12/12 12:20:20;;;;;;;7.47;6.53;;;;;;;9.13;100.00;98511.25;5098551;28;20210;-31
2020/12/12 12:23:07;;;;;;;10.23;7.57;;;;;;;8.50;100.00;98518.28;5097955;28;20195;-31
2020/12/12 12:25:53;;;;;;;14.20;12.43;;;;;;;8.42;100.00;98515.09;5110150;28;20248;-31
2020/12/12 12:28:41;;;;;;;13.13;11.63;;;;;;;8.58;100.00;98513.78;5120896;28;20246;-31
2020/12/12 12:31:27;;;;;;;8.67;7.77;;;;;;;8.57;100.00;98518.97;5118611;28;20214;-31
2020/12/12 12:34:14;;;;;;;16.90;15.27;;;;;;;8.15;100.00;98526.16;5117955;28;20198;-30
2020/12/12 12:37:01;;;;;;;30.90;22.37;;;;;;;7.91;100.00;98520.75;5119120;28;20631;-29
2020/12/12 12:39:47;;;;;;;11.57;10.17;;;;;;;7.91;100.00;98527.63;5118242;28;20358;-30
2020/12/12 12:42:33;;;;;;;15.57;12.93;;;;;;;8.26;100.00;98526.69;5118128;28;20464;-31
2020/12/12 12:45:23;;;;;;;11.03;9.70;;;;;;;8.55;100.00;98524.16;5118936;28;20198;-30
2020/12/12 12:48:09;;;;;;;13.17;11.77;;;;;;;8.46;100.00;98531.31;5098073;28;20276;-30
2020/12/12 12:50:56;;;;;;;8.47;7.20;;;;;;;8.27;100.00;98528.38;5105167;28;20232;-30
2020/12/12 12:53:42;;;;;;;6.33;5.73;;;;;;;8.22;100.00;98530.22;5117962;28;20203;-30
2020/12/12 12:56:29;;;;;;;8.60;6.20;;;;;;;8.28;100.00;98536.06;5119194;28;20570;-30
2020/12/12 12:59:15;;;;;;;7.27;6.57;;;;;;;8.53;100.00;98533.69;5119270;28;20198;-30
2020/12/12 13:02:03;;;;;;;8.07;7.30;;;;;;;8.25;100.00;98530.97;5118195;28;20193;-30
2020/12/12 13:04:49;;;;;;;10.40;8.80;;;;;;;8.16;100.00;98533.84;5117405;28;20244;-29
2020/12/12 13:07:35;;;;;;;8.47;7.57;;;;;;;8.54;100.00;98544.84;5117487;28;20287;-30
2020/12/12 13:10:22;;;;;;;8.30;7.37;;;;;;;8.25;100.00;98538.72;5117368;28;20225;-30